Airfield :
LOGIN :

Register | Disclaimer

   EN    FR    IT 

 










Legend :    VFR   Marginal VFR   IFR   Intensive IFR   Very Intensive IFR
Visi :
Ceiling :
>= 8 km
>= 3000ft
5 to 8 km
1000 to 3000 ft
1500m to 5 km
500 to 1000 ft
800 to 1500m
200 to 500 ft
< 800m
< 200 ft
Symbols :   Thunderstorms  Fog  Heavy snow  Heavy precipitations  Wind > 20 kt
SIGMETs :     Misc.  Thunderstorms  Icing  Turbulence  Mountain Waves  Volcanic Ashes






- Airport Elevation : 1017 ft


LFSL - Brive Souillac

CURRENT METAR :
  • 021630Z AUTO 31005KT 260V340 CAVOK 14/04 Q1013

EXPIRED METARs :
  • 021600Z AUTO 34007KT 310V010 CAVOK 14/03 Q1013
  • 021530Z AUTO 35005KT 320V030 9999 FEW047 13/04 Q1013
  • 021500Z AUTO 33008KT 270V020 9999 FEW041 SCT048 14/04 Q1013
  • 021430Z AUTO 34010KT 310V020 9999 BKN041 14/04 Q1013
  • 021400Z AUTO 31007KT 230V360 9999 FEW039 14/05 Q1014

Expired Forecast.



MET'MAP, your aeronautical weather chart ! - Copyright ORBIFLY December 2007 - Disclaimer

ORBIFLY MET'MAP TEAM :

Programming & Development : Alexandra Zaïnal
Concept & original design : Baudouin d'Aumeries
Assistance for programming : Marc-Olivier Méhu
Technical & hardware support : Manuel Goepfert

Contact : metmap@orbifly.com




SOURCES & CREDITS :

   NOAA